EW4556 Weather Reports


Display with metric or nautical units.
time (UTC)temp
F
wind
direction
speed
MPH
gust
MPH
rain 1hr
in
rain 24hr
in
rain mn
in
humidity
%
barometer
mb
20180716195732 77 259 1.0 4.0 0.00 0.96 0.96 88 1010.5
20180716194234 76 101 0.0 2.0 0.02 0.96 0.96 93 1010.5
20180716192732 74 106 0.0 1.0 0.55 0.96 0.96 95 1010.6
20180716191228 73 5 0.0 2.0 0.96 0.96 0.96 97 1011.1
20180716185729 69 51 0.0 3.0 0.96 0.96 0.96 96 1011.0
20180716184229 68 114 2.0 6.0 0.93 0.93 0.93 92 1011.5
20180716182725 72 251 3.0 23.0 0.40 0.40 0.40 79 1012.6
20180716181224 84 181 2.0 4.0 0.00 0.00 0.00 64 1011.7
20180716175725 87 68 0.0 4.0 0.00 0.00 0.00 58 1011.2
20180716174221 86 38 1.0 5.0 0.00 0.00 0.00 62 1011.2
20180716172719 85 55 0.0 3.0 0.00 0.00 0.00 66 1011.4
20180716171218 86 50 0.0 4.0 0.00 0.00 0.00 65 1011.6
20180716165717 85 236 1.0 3.0 0.00 0.00 0.00 66 1011.7
20180716164216 84 257 1.0 4.0 0.00 0.00 0.00 71 1012.0
20180716162715 83 288 1.0 5.0 0.00 0.00 0.00 65 1012.1
20180716161210 84 267 0.0 2.0 0.00 0.00 0.00 67 1012.2
20180716155709 85 133 1.0 3.0 0.00 0.00 0.00 64 1012.2
20180716154209 84 302 1.0 5.0 0.00 0.00 0.00 68 1012.4
20180716152702 83 286 1.0 5.0 0.00 0.00 0.00 70 1012.4
20180716151202 83 44 1.0 4.0 0.00 0.00 0.00 70 1012.6
20180716145659 82 263 1.0 3.0 0.00 0.00 0.00 75 1012.8
20180716144155 81 177 0.0 4.0 0.00 0.00 0.00 74 1012.9
20180716142656 81 282 1.0 4.0 0.00 0.00 0.00 73 1013.0
20180716141151 80 135 0.0 3.0 0.00 0.00 0.00 76 1013.1
20180716135647 79 251 0.0 2.0 0.00 0.00 0.00 83 1013.1
20180716134144 77 128 0.0 3.0 0.00 0.00 0.00 84 1013.1
20180716132644 76 237 0.0 2.0 0.00 0.00 0.00 87 1013.1
20180716131139 75 284 1.0 2.0 0.00 0.00 0.00 88 1013.3
20180716125631 74 272 0.0 0.0 0.00 0.00 0.00 89 1013.3
20180716124127 73 294 0.0 0.0 0.00 0.00 0.00 91 1013.4
20180716122623 71 294 0.0 0.0 0.00 0.00 0.00 96 1013.2
20180716121124 69 294 0.0 0.0 0.00 0.00 0.00 98 1013.1
20180716115620 68 294 0.0 0.0 0.00 0.00 0.00 98 1013.2
20180716114121 67 294 0.0 0.0 0.00 0.00 0.00 98 1013.2
20180716112620 66 294 0.0 0.0 0.00 0.00 0.00 97 1013.0
20180716111116 66 294 0.0 0.0 0.00 0.00 0.00 97 1012.9
20180716105617 66 294 0.0 0.0 0.00 0.00 0.00 97 1013.0
20180716104113 66 294 0.0 0.0 0.00 0.00 0.00 97 1012.8
20180716102615 66 294 0.0 0.0 0.00 0.00 0.00 97 1012.9
20180716101112 66 294 0.0 0.0 0.00 0.00 0.00 97 1012.8
20180716095615 66 294 0.0 0.0 0.00 0.00 0.00 97 1012.7
20180716094111 66 294 0.0 0.0 0.00 0.00 0.00 96 1012.6
20180716092611 66 294 0.0 0.0 0.00 0.00 0.00 97 1012.6
20180716091109 66 294 0.0 0.0 0.00 0.00 0.00 96 1012.5
20180716085607 67 294 0.0 0.0 0.00 0.00 0.00 96 1012.4
20180716084105 67 294 0.0 0.0 0.00 0.00 0.00 97 1012.3
20180716082603 67 294 0.0 0.0 0.00 0.00 0.00 97 1012.2
20180716081104 67 294 0.0 0.0 0.00 0.00 0.00 96 1012.3
20180716075605 67 294 0.0 0.0 0.00 0.00 0.00 96 1012.3
20180716074102 67 294 0.0 0.0 0.00 0.00 0.00 96 1012.5
20180716072558 67 294 0.0 0.0 0.00 0.00 0.00 95 1012.6
20180716071057 68 294 0.0 0.0 0.00 0.00 0.00 95 1012.7
20180716065556 68 294 0.0 0.0 0.00 0.00 0.00 96 1012.8
20180716064100 68 294 0.0 0.0 0.00 0.00 0.00 95 1012.8
20180716062554 69 294 0.0 0.0 0.00 0.00 0.00 96 1012.8
20180716061055 69 294 0.0 0.0 0.00 0.00 0.00 96 1012.6
20180716055552 69 294 0.0 0.0 0.00 0.00 0.00 95 1012.7
20180716054052 69 294 0.0 0.0 0.00 0.00 0.00 95 1012.7
20180716052552 69 294 0.0 0.0 0.00 0.00 0.00 95 1012.5
20180716051048 69 294 0.0 0.0 0.00 0.00 0.00 94 1012.7
20180716045549 69 294 0.0 0.0 0.00 0.00 0.00 94 1012.8
20180716044049 70 294 0.0 0.0 0.00 0.00 0.00 94 1012.8
20180716042548 70 294 0.0 0.0 0.00 0.00 0.00 93 1012.6
20180716041044 70 294 0.0 0.0 0.00 0.00 0.00 92 1012.6
20180716035542 71 294 0.0 1.0 0.00 0.02 0.00 91 1012.6
20180716034043 71 294 0.0 0.0 0.00 0.02 0.00 90 1012.6
20180716032540 71 294 0.0 0.0 0.00 0.02 0.00 90 1012.5
20180716031041 72 294 0.0 0.0 0.00 0.02 0.00 89 1012.4
20180716025543 72 294 0.0 0.0 0.00 0.02 0.00 88 1012.4
20180716024036 72 294 0.0 0.0 0.00 0.02 0.00 88 1012.5
20180716022539 73 294 0.0 0.0 0.00 0.02 0.00 86 1012.5
20180716021035 73 294 0.0 0.0 0.00 0.02 0.00 85 1012.4
20180716015538 74 294 0.0 2.0 0.00 0.04 0.00 83 1012.2
20180716014037 74 279 0.0 5.0 0.00 0.04 0.00 83 1012.0
20180716012532 75 254 0.0 2.0 0.00 0.04 0.00 82 1011.9
20180716011036 75 254 0.0 2.0 0.00 0.04 0.00 81 1012.0
20180716005537 76 254 0.0 0.0 0.00 0.04 0.00 79 1011.8
20180716004034 76 254 0.0 2.0 0.00 0.04 0.00 77 1011.7
20180716002535 77 238 0.0 2.0 0.00 0.04 0.00 76 1011.8
20180716001034 77 257 0.0 2.0 0.00 0.04 0.00 78 1011.7
20180715235536 78 257 0.0 1.0 0.00 0.04 0.00 76 1011.5
20180715234034 79 263 0.0 2.0 0.00 0.04 0.00 74 1011.2
20180715232531 81 305 0.0 1.0 0.00 0.04 0.00 70 1011.0
20180715231028 83 277 0.0 3.0 0.00 0.04 0.00 66 1011.0
20180715225533 84 344 0.0 2.0 0.00 0.04 0.00 66 1010.8
20180715224029 84 242 0.0 2.0 0.00 0.04 0.00 64 1011.0
20180715222526 84 201 1.0 3.0 0.00 0.04 0.00 64 1011.0
20180715221028 84 260 1.0 4.0 0.00 0.04 0.00 61 1011.0
20180715215526 85 228 1.0 4.0 0.00 0.04 0.00 60 1010.9
20180715214031 85 308 0.0 5.0 0.00 0.04 0.00 61 1010.9
20180715212525 84 289 2.0 7.0 0.00 0.04 0.00 62 1010.9
20180715211022 83 227 0.0 4.0 0.00 0.04 0.00 70 1010.9
20180715205524 81 244 0.0 3.0 0.00 0.04 0.00 74 1010.9
20180715204020 80 47 0.0 3.0 0.00 0.04 0.00 76 1011.3
20180715202519 83 360 0.0 3.0 0.00 0.04 0.00 73 1011.5
20180715201017 83 254 1.0 5.0 0.00 0.04 0.00 72 1011.3